createdAt,value
2024-02-13T00:07:24.202Z,100.00
2024-02-13T00:17:30.136Z,100.00
2024-02-13T00:27:35.361Z,100.00
2024-02-13T00:37:38.079Z,100.00
2024-02-13T00:47:43.525Z,100.00
2024-02-13T00:57:47.592Z,100.00
2024-02-13T01:07:49.430Z,100.00
2024-02-13T01:17:51.362Z,100.00
2024-02-13T01:27:53.293Z,100.00
2024-02-13T01:37:55.646Z,100.00
2024-02-13T01:48:03.272Z,100.00
2024-02-13T01:58:10.453Z,100.00
2024-02-13T02:08:15.499Z,100.00
2024-02-13T02:18:19.612Z,100.00
2024-02-13T02:28:21.725Z,100.00
2024-02-13T02:38:23.822Z,100.00
2024-02-13T02:48:26.124Z,100.00
2024-02-13T02:58:29.080Z,100.00
2024-02-13T03:08:34.940Z,100.00
2024-02-13T03:18:38.790Z,100.00
2024-02-13T03:28:40.625Z,100.00
2024-02-13T03:38:44.234Z,100.00
2024-02-13T03:48:46.192Z,100.00
2024-02-13T03:58:48.111Z,100.00
2024-02-13T04:08:51.474Z,100.00
2024-02-13T04:18:56.256Z,100.00
2024-02-13T04:28:58.212Z,100.00
2024-02-13T04:39:01.222Z,100.00
2024-02-13T04:49:03.095Z,100.00
2024-02-13T04:59:09.337Z,100.00
2024-02-13T05:09:12.827Z,100.00
2024-02-13T05:19:14.663Z,100.00
2024-02-13T05:29:16.668Z,100.00
2024-02-13T05:39:18.903Z,100.00
2024-02-13T05:49:20.879Z,100.00
2024-02-13T05:59:27.226Z,100.00
2024-02-13T06:09:29.319Z,100.00
2024-02-13T06:19:31.420Z,100.00
2024-02-13T06:29:33.267Z,100.00
2024-02-13T06:39:35.257Z,100.00
2024-02-13T06:49:37.826Z,100.00
2024-02-13T06:59:40.701Z,100.00
2024-02-13T07:09:47.666Z,100.00
2024-02-13T07:19:50.242Z,100.00
2024-02-13T07:29:55.675Z,100.00
2024-02-13T07:39:57.580Z,100.00
2024-02-13T07:50:01.398Z,100.00
2024-02-13T08:00:05.640Z,100.00
2024-02-13T08:10:12.527Z,100.00
2024-02-13T08:20:14.720Z,100.00
2024-02-13T08:30:17.964Z,79.62
2024-02-13T08:40:20.905Z,65.62
2024-02-13T08:50:22.860Z,58.47
2024-02-13T09:00:30.246Z,52.39
2024-02-13T09:10:32.026Z,49.12
2024-02-13T09:20:33.957Z,44.37
2024-02-13T09:30:36.814Z,44.21
2024-02-13T09:40:39.338Z,46.33
2024-02-13T09:50:44.216Z,45.84
2024-02-13T10:00:46.284Z,44.93
2024-02-13T10:11:00.357Z,43.85
2024-02-13T10:21:05.765Z,41.08
2024-02-13T10:31:08.998Z,32.80
2024-02-13T10:41:11.904Z,34.39
2024-02-13T10:51:17.402Z,34.84
2024-02-13T11:01:24.002Z,31.97
2024-02-13T11:11:27.279Z,29.95
2024-02-13T11:21:29.544Z,29.90
2024-02-13T11:31:32.272Z,31.67
2024-02-13T11:41:35.494Z,33.46
2024-02-13T11:51:40.848Z,31.00
2024-02-13T12:01:44.832Z,38.11
2024-02-13T12:11:47.343Z,39.79
2024-02-13T12:21:49.951Z,40.92
2024-02-13T12:31:52.284Z,45.15
2024-02-13T12:41:54.726Z,47.54
2024-02-13T12:51:57.171Z,42.95
2024-02-13T13:02:00.751Z,46.73
2024-02-13T13:12:02.776Z,49.81
2024-02-13T13:22:04.821Z,51.24
2024-02-13T13:32:07.586Z,40.79
2024-02-13T13:42:11.273Z,38.71
2024-02-13T13:52:19.589Z,36.89
2024-02-13T14:02:21.568Z,41.33
2024-02-13T14:12:23.512Z,31.92
2024-02-13T14:22:28.275Z,31.04
2024-02-13T14:32:31.669Z,31.44
2024-02-13T14:42:35.093Z,30.53
2024-02-13T14:52:44.224Z,29.33
2024-02-13T15:02:50.691Z,28.17
2024-02-13T15:12:52.720Z,39.71
2024-02-13T15:22:54.687Z,43.00
2024-02-13T15:32:58.041Z,43.35
2024-02-13T15:43:20.917Z,44.44
2024-02-13T15:53:28.808Z,44.60
2024-02-13T16:03:37.853Z,45.72
2024-02-13T16:13:41.365Z,47.46
2024-02-13T16:23:43.273Z,50.80
2024-02-13T16:33:46.250Z,62.73
2024-02-13T16:43:51.890Z,67.48
2024-02-13T16:53:55.523Z,70.61
2024-02-13T17:03:57.633Z,74.75
2024-02-13T17:14:01.678Z,76.12
2024-02-13T17:24:04.087Z,79.24
2024-02-13T17:34:06.234Z,82.55
2024-02-13T17:44:08.287Z,85.60
2024-02-13T17:54:10.543Z,88.23
2024-02-13T18:04:12.389Z,92.86
2024-02-13T18:14:16.605Z,92.26
2024-02-13T18:24:18.459Z,92.38
2024-02-13T18:34:20.580Z,92.34
2024-02-13T18:44:24.143Z,92.43
2024-02-13T18:54:26.380Z,91.91
2024-02-13T19:04:28.480Z,89.42
2024-02-13T19:14:31.466Z,88.21
2024-02-13T19:24:33.280Z,89.68
2024-02-13T19:34:36.211Z,90.58
2024-02-13T19:44:39.432Z,94.46
2024-02-13T19:54:41.576Z,95.34
2024-02-13T20:04:47.204Z,100.00
2024-02-13T20:14:49.123Z,100.00
2024-02-13T20:24:51.004Z,100.00
2024-02-13T20:34:56.955Z,100.00
2024-02-13T20:45:10.109Z,100.00
2024-02-13T20:55:25.933Z,100.00
2024-02-13T21:05:30.870Z,100.00
2024-02-13T21:15:35.665Z,100.00
2024-02-13T21:25:37.648Z,100.00
2024-02-13T21:35:40.675Z,100.00
2024-02-13T21:45:49.677Z,97.42
2024-02-13T21:55:54.064Z,97.46
2024-02-13T22:05:56.316Z,99.10
2024-02-13T22:15:59.223Z,100.00
2024-02-13T22:26:04.438Z,100.00
2024-02-13T22:36:07.680Z,100.00
2024-02-13T22:46:13.952Z,100.00
2024-02-13T22:56:16.382Z,100.00
2024-02-13T23:06:18.552Z,100.00
2024-02-13T23:16:22.073Z,100.00
2024-02-13T23:26:24.933Z,100.00
2024-02-13T23:36:29.279Z,100.00
2024-02-13T23:46:32.717Z,100.00
2024-02-13T23:56:34.512Z,100.00
